sensor_id;sensor_type;location;lat;lon;timestamp;temperature;humidity
21216;DHT22;10765;50.954;5.322;2024-01-11T00:01:47;-4.30;99.90
21216;DHT22;10765;50.954;5.322;2024-01-11T00:04:15;-4.40;99.90
21216;DHT22;10765;50.954;5.322;2024-01-11T00:06:43;-4.30;99.90
21216;DHT22;10765;50.954;5.322;2024-01-11T00:09:10;-4.30;99.90
21216;DHT22;10765;50.954;5.322;2024-01-11T00:11:37;-4.30;99.90
21216;DHT22;10765;50.954;5.322;2024-01-11T00:14:03;-4.30;99.90
21216;DHT22;10765;50.954;5.322;2024-01-11T00:16:30;-4.30;99.90
21216;DHT22;10765;50.954;5.322;2024-01-11T00:18:57;-4.20;99.90
21216;DHT22;10765;50.954;5.322;2024-01-11T00:21:25;-4.30;99.90
21216;DHT22;10765;50.954;5.322;2024-01-11T00:23:52;-4.30;99.90
21216;DHT22;10765;50.954;5.322;2024-01-11T00:26:20;-4.40;99.90
21216;DHT22;10765;50.954;5.322;2024-01-11T00:28:46;-4.40;99.90
21216;DHT22;10765;50.954;5.322;2024-01-11T00:31:13;-4.30;99.90
21216;DHT22;10765;50.954;5.322;2024-01-11T00:33:40;-4.30;99.90
21216;DHT22;10765;50.954;5.322;2024-01-11T00:36:07;-4.30;99.90
21216;DHT22;10765;50.954;5.322;2024-01-11T00:38:35;-4.40;99.90
21216;DHT22;10765;50.954;5.322;2024-01-11T00:41:02;-4.40;99.90
21216;DHT22;10765;50.954;5.322;2024-01-11T00:43:29;-4.50;99.90
21216;DHT22;10765;50.954;5.322;2024-01-11T00:45:56;-4.50;99.90
21216;DHT22;10765;50.954;5.322;2024-01-11T00:48:23;-4.50;99.90
21216;DHT22;10765;50.954;5.322;2024-01-11T00:50:50;-4.50;99.90
21216;DHT22;10765;50.954;5.322;2024-01-11T00:53:17;-4.40;99.90
21216;DHT22;10765;50.954;5.322;2024-01-11T00:55:45;-4.40;99.90
21216;DHT22;10765;50.954;5.322;2024-01-11T00:58:12;-4.40;99.90
21216;DHT22;10765;50.954;5.322;2024-01-11T01:00:39;-4.50;99.90
21216;DHT22;10765;50.954;5.322;2024-01-11T01:03:05;-4.50;99.90
21216;DHT22;10765;50.954;5.322;2024-01-11T01:05:33;-4.60;99.90
21216;DHT22;10765;50.954;5.322;2024-01-11T01:08:00;-4.60;99.90
21216;DHT22;10765;50.954;5.322;2024-01-11T01:10:27;-4.50;99.90
21216;DHT22;10765;50.954;5.322;2024-01-11T01:12:55;-4.50;99.90
21216;DHT22;10765;50.954;5.322;2024-01-11T01:15:22;-4.40;99.90
21216;DHT22;10765;50.954;5.322;2024-01-11T01:17:49;-4.50;99.90
21216;DHT22;10765;50.954;5.322;2024-01-11T01:20:16;-4.50;99.90
21216;DHT22;10765;50.954;5.322;2024-01-11T01:22:42;-4.60;99.90
21216;DHT22;10765;50.954;5.322;2024-01-11T01:25:09;-4.60;99.90
21216;DHT22;10765;50.954;5.322;2024-01-11T01:27:36;-4.60;99.90
21216;DHT22;10765;50.954;5.322;2024-01-11T01:30:06;-4.50;99.90
21216;DHT22;10765;50.954;5.322;2024-01-11T01:32:34;-4.80;99.90
21216;DHT22;10765;50.954;5.322;2024-01-11T01:35:01;-4.90;99.90
21216;DHT22;10765;50.954;5.322;2024-01-11T01:37:28;-4.90;99.90
21216;DHT22;10765;50.954;5.322;2024-01-11T01:39:55;-5.00;99.90
21216;DHT22;10765;50.954;5.322;2024-01-11T01:42:22;-5.00;99.90
21216;DHT22;10765;50.954;5.322;2024-01-11T01:44:49;-4.90;99.90
21216;DHT22;10765;50.954;5.322;2024-01-11T01:47:17;-4.70;99.90
21216;DHT22;10765;50.954;5.322;2024-01-11T01:49:45;-4.60;99.90
21216;DHT22;10765;50.954;5.322;2024-01-11T01:52:14;-4.60;99.90
21216;DHT22;10765;50.954;5.322;2024-01-11T01:54:42;-4.70;99.90
21216;DHT22;10765;50.954;5.322;2024-01-11T01:57:10;-4.70;99.90
21216;DHT22;10765;50.954;5.322;2024-01-11T01:59:39;-4.80;99.90
21216;DHT22;10765;50.954;5.322;2024-01-11T02:02:06;-4.80;99.90
21216;DHT22;10765;50.954;5.322;2024-01-11T02:04:35;-4.60;99.90
21216;DHT22;10765;50.954;5.322;2024-01-11T02:07:02;-4.60;99.90
21216;DHT22;10765;50.954;5.322;2024-01-11T02:09:30;-4.60;99.90
21216;DHT22;10765;50.954;5.322;2024-01-11T02:11:58;-4.60;99.90
21216;DHT22;10765;50.954;5.322;2024-01-11T02:14:25;-4.60;99.90
21216;DHT22;10765;50.954;5.322;2024-01-11T02:16:53;-4.60;99.90
21216;DHT22;10765;50.954;5.322;2024-01-11T02:19:20;-4.70;99.90
21216;DHT22;10765;50.954;5.322;2024-01-11T02:21:50;-4.60;99.90
21216;DHT22;10765;50.954;5.322;2024-01-11T02:24:21;-4.60;99.90
21216;DHT22;10765;50.954;5.322;2024-01-11T02:27:06;-4.60;99.90
21216;DHT22;10765;50.954;5.322;2024-01-11T02:29:34;-4.60;99.90
21216;DHT22;10765;50.954;5.322;2024-01-11T02:32:01;-4.70;99.90
21216;DHT22;10765;50.954;5.322;2024-01-11T02:34:29;-4.70;99.90
21216;DHT22;10765;50.954;5.322;2024-01-11T02:36:56;-4.70;99.90
21216;DHT22;10765;50.954;5.322;2024-01-11T02:39:25;-4.50;99.90
21216;DHT22;10765;50.954;5.322;2024-01-11T02:41:57;-4.60;99.90
21216;DHT22;10765;50.954;5.322;2024-01-11T02:44:24;-4.60;99.90
21216;DHT22;10765;50.954;5.322;2024-01-11T02:46:51;-4.60;99.90
21216;DHT22;10765;50.954;5.322;2024-01-11T02:49:17;-4.60;99.90
21216;DHT22;10765;50.954;5.322;2024-01-11T02:51:44;-4.60;99.90
21216;DHT22;10765;50.954;5.322;2024-01-11T02:54:11;-4.70;99.90
21216;DHT22;10765;50.954;5.322;2024-01-11T02:56:39;-4.80;99.90
21216;DHT22;10765;50.954;5.322;2024-01-11T02:59:07;-4.80;99.90
21216;DHT22;10765;50.954;5.322;2024-01-11T03:01:34;-4.60;99.90
21216;DHT22;10765;50.954;5.322;2024-01-11T03:04:02;-4.50;99.90
21216;DHT22;10765;50.954;5.322;2024-01-11T03:06:28;-4.60;99.90
21216;DHT22;10765;50.954;5.322;2024-01-11T03:08:55;-4.70;99.90
21216;DHT22;10765;50.954;5.322;2024-01-11T03:11:22;-4.60;99.90
21216;DHT22;10765;50.954;5.322;2024-01-11T03:13:50;-4.70;99.90
21216;DHT22;10765;50.954;5.322;2024-01-11T03:16:17;-4.90;99.90
21216;DHT22;10765;50.954;5.322;2024-01-11T03:18:44;-4.80;99.90
21216;DHT22;10765;50.954;5.322;2024-01-11T03:21:11;-4.90;99.90
21216;DHT22;10765;50.954;5.322;2024-01-11T03:23:38;-4.90;99.90
21216;DHT22;10765;50.954;5.322;2024-01-11T03:26:12;-4.90;99.90
21216;DHT22;10765;50.954;5.322;2024-01-11T03:28:39;-4.80;99.90
21216;DHT22;10765;50.954;5.322;2024-01-11T03:31:07;-4.80;99.90
21216;DHT22;10765;50.954;5.322;2024-01-11T03:33:35;-4.80;99.90
21216;DHT22;10765;50.954;5.322;2024-01-11T03:36:06;-4.80;99.90
21216;DHT22;10765;50.954;5.322;2024-01-11T03:38:34;-4.90;99.90
21216;DHT22;10765;50.954;5.322;2024-01-11T03:41:01;-5.00;99.90
21216;DHT22;10765;50.954;5.322;2024-01-11T03:43:28;-5.00;99.90
21216;DHT22;10765;50.954;5.322;2024-01-11T03:45:55;-5.00;99.90
21216;DHT22;10765;50.954;5.322;2024-01-11T03:48:23;-5.00;99.90
21216;DHT22;10765;50.954;5.322;2024-01-11T03:50:50;-5.10;99.90
21216;DHT22;10765;50.954;5.322;2024-01-11T03:53:17;-5.00;99.90
21216;DHT22;10765;50.954;5.322;2024-01-11T03:55:44;-5.20;99.90
21216;DHT22;10765;50.954;5.322;2024-01-11T03:58:11;-5.30;99.90
21216;DHT22;10765;50.954;5.322;2024-01-11T04:00:38;-5.30;99.90
21216;DHT22;10765;50.954;5.322;2024-01-11T04:03:06;-5.20;99.90
21216;DHT22;10765;50.954;5.322;2024-01-11T04:05:34;-5.20;99.90
21216;DHT22;10765;50.954;5.322;2024-01-11T04:08:04;-5.20;99.90
21216;DHT22;10765;50.954;5.322;2024-01-11T04:10:31;-5.20;99.90
21216;DHT22;10765;50.954;5.322;2024-01-11T04:12:58;-5.10;99.90
21216;DHT22;10765;50.954;5.322;2024-01-11T04:15:25;-5.10;99.90
21216;DHT22;10765;50.954;5.322;2024-01-11T04:17:52;-5.10;99.90
21216;DHT22;10765;50.954;5.322;2024-01-11T04:20:19;-5.20;99.90
21216;DHT22;10765;50.954;5.322;2024-01-11T04:22:47;-5.20;99.90
21216;DHT22;10765;50.954;5.322;2024-01-11T04:25:14;-5.20;99.90
21216;DHT22;10765;50.954;5.322;2024-01-11T04:27:41;-5.30;99.90
21216;DHT22;10765;50.954;5.322;2024-01-11T04:30:08;-5.40;99.90
21216;DHT22;10765;50.954;5.322;2024-01-11T04:32:35;-5.30;99.90
21216;DHT22;10765;50.954;5.322;2024-01-11T04:35:02;-5.30;99.90
21216;DHT22;10765;50.954;5.322;2024-01-11T04:37:30;-5.60;99.90
21216;DHT22;10765;50.954;5.322;2024-01-11T04:39:58;-5.60;99.90
21216;DHT22;10765;50.954;5.322;2024-01-11T04:42:26;-5.50;99.90
21216;DHT22;10765;50.954;5.322;2024-01-11T04:44:53;-5.50;99.90
21216;DHT22;10765;50.954;5.322;2024-01-11T04:47:20;-5.40;99.90
21216;DHT22;10765;50.954;5.322;2024-01-11T04:49:47;-5.50;99.90
21216;DHT22;10765;50.954;5.322;2024-01-11T04:52:14;-5.40;99.90
21216;DHT22;10765;50.954;5.322;2024-01-11T04:54:41;-5.40;99.90
21216;DHT22;10765;50.954;5.322;2024-01-11T04:57:09;-5.30;99.90
21216;DHT22;10765;50.954;5.322;2024-01-11T04:59:36;-5.40;99.90
21216;DHT22;10765;50.954;5.322;2024-01-11T05:02:03;-5.40;99.90
21216;DHT22;10765;50.954;5.322;2024-01-11T05:04:30;-5.50;99.90
21216;DHT22;10765;50.954;5.322;2024-01-11T05:06:57;-5.50;99.90
21216;DHT22;10765;50.954;5.322;2024-01-11T05:09:24;-5.60;99.90
21216;DHT22;10765;50.954;5.322;2024-01-11T05:11:50;-5.50;99.90
21216;DHT22;10765;50.954;5.322;2024-01-11T05:14:19;-5.50;99.90
21216;DHT22;10765;50.954;5.322;2024-01-11T05:16:46;-5.50;99.90
21216;DHT22;10765;50.954;5.322;2024-01-11T05:19:12;-5.40;99.90
21216;DHT22;10765;50.954;5.322;2024-01-11T05:21:39;-5.30;99.90
21216;DHT22;10765;50.954;5.322;2024-01-11T05:24:06;-5.30;99.90
21216;DHT22;10765;50.954;5.322;2024-01-11T05:26:33;-5.40;99.90
21216;DHT22;10765;50.954;5.322;2024-01-11T05:29:00;-5.50;99.90
21216;DHT22;10765;50.954;5.322;2024-01-11T05:31:31;-5.50;99.90
21216;DHT22;10765;50.954;5.322;2024-01-11T05:33:58;-5.50;99.90
21216;DHT22;10765;50.954;5.322;2024-01-11T05:36:24;-5.60;99.90
21216;DHT22;10765;50.954;5.322;2024-01-11T05:38:51;-5.50;99.90
21216;DHT22;10765;50.954;5.322;2024-01-11T05:41:18;-5.50;99.90
21216;DHT22;10765;50.954;5.322;2024-01-11T05:43:45;-5.50;99.90
21216;DHT22;10765;50.954;5.322;2024-01-11T05:46:12;-5.60;99.90
21216;DHT22;10765;50.954;5.322;2024-01-11T05:48:41;-5.70;99.90
21216;DHT22;10765;50.954;5.322;2024-01-11T05:51:08;-5.80;1.00
21216;DHT22;10765;50.954;5.322;2024-01-11T05:53:35;-5.80;1.00
21216;DHT22;10765;50.954;5.322;2024-01-11T05:56:07;-5.80;1.00
21216;DHT22;10765;50.954;5.322;2024-01-11T05:58:34;-5.70;1.00
21216;DHT22;10765;50.954;5.322;2024-01-11T06:01:03;-5.70;1.00
21216;DHT22;10765;50.954;5.322;2024-01-11T06:03:30;-5.80;1.00
21216;DHT22;10765;50.954;5.322;2024-01-11T06:06:01;-5.90;1.00
21216;DHT22;10765;50.954;5.322;2024-01-11T06:08:29;-5.90;1.00
21216;DHT22;10765;50.954;5.322;2024-01-11T06:10:56;-5.90;1.00
21216;DHT22;10765;50.954;5.322;2024-01-11T06:13:23;-5.90;1.00
21216;DHT22;10765;50.954;5.322;2024-01-11T06:15:50;-5.70;1.00
21216;DHT22;10765;50.954;5.322;2024-01-11T06:18:16;-5.70;1.00
21216;DHT22;10765;50.954;5.322;2024-01-11T06:20:43;-5.80;1.00
21216;DHT22;10765;50.954;5.322;2024-01-11T06:23:12;-5.70;1.00
21216;DHT22;10765;50.954;5.322;2024-01-11T06:25:38;-5.50;1.00
21216;DHT22;10765;50.954;5.322;2024-01-11T06:28:06;-5.40;1.00
21216;DHT22;10765;50.954;5.322;2024-01-11T06:30:35;-5.50;1.00
21216;DHT22;10765;50.954;5.322;2024-01-11T06:33:03;-5.60;1.00
21216;DHT22;10765;50.954;5.322;2024-01-11T06:35:30;-5.60;1.00
21216;DHT22;10765;50.954;5.322;2024-01-11T06:37:56;-5.70;1.00
21216;DHT22;10765;50.954;5.322;2024-01-11T06:40:25;-5.80;1.00
21216;DHT22;10765;50.954;5.322;2024-01-11T06:42:52;-5.80;1.00
21216;DHT22;10765;50.954;5.322;2024-01-11T06:45:19;-5.80;1.00
21216;DHT22;10765;50.954;5.322;2024-01-11T06:47:46;-5.90;1.00
21216;DHT22;10765;50.954;5.322;2024-01-11T06:50:14;-5.80;1.00
21216;DHT22;10765;50.954;5.322;2024-01-11T06:52:41;-5.70;1.00
21216;DHT22;10765;50.954;5.322;2024-01-11T06:55:08;-5.70;1.00
21216;DHT22;10765;50.954;5.322;2024-01-11T06:57:37;-5.60;1.00
21216;DHT22;10765;50.954;5.322;2024-01-11T07:00:05;-5.60;1.00
21216;DHT22;10765;50.954;5.322;2024-01-11T07:02:33;-5.60;1.00
21216;DHT22;10765;50.954;5.322;2024-01-11T07:05:00;-5.60;1.00
21216;DHT22;10765;50.954;5.322;2024-01-11T07:07:27;-5.60;1.00
21216;DHT22;10765;50.954;5.322;2024-01-11T07:09:54;-5.70;1.00
21216;DHT22;10765;50.954;5.322;2024-01-11T07:12:21;-5.80;1.00
21216;DHT22;10765;50.954;5.322;2024-01-11T07:14:50;-5.80;1.00
21216;DHT22;10765;50.954;5.322;2024-01-11T07:17:17;-5.80;1.00
21216;DHT22;10765;50.954;5.322;2024-01-11T07:19:43;-5.90;1.00
21216;DHT22;10765;50.954;5.322;2024-01-11T07:22:10;-6.10;1.00
21216;DHT22;10765;50.954;5.322;2024-01-11T07:24:37;-6.20;1.00
21216;DHT22;10765;50.954;5.322;2024-01-11T07:27:04;-6.20;1.00
21216;DHT22;10765;50.954;5.322;2024-01-11T07:29:31;-6.20;1.00
21216;DHT22;10765;50.954;5.322;2024-01-11T07:32:00;-6.00;1.00
21216;DHT22;10765;50.954;5.322;2024-01-11T07:34:27;-5.90;1.00
21216;DHT22;10765;50.954;5.322;2024-01-11T07:36:54;-5.70;1.00
21216;DHT22;10765;50.954;5.322;2024-01-11T07:39:22;-5.70;1.00
21216;DHT22;10765;50.954;5.322;2024-01-11T07:41:50;-5.60;1.00
21216;DHT22;10765;50.954;5.322;2024-01-11T07:44:18;-5.60;1.00
21216;DHT22;10765;50.954;5.322;2024-01-11T07:46:45;-5.60;1.00
21216;DHT22;10765;50.954;5.322;2024-01-11T07:49:14;-5.50;1.00
21216;DHT22;10765;50.954;5.322;2024-01-11T07:51:41;-5.60;99.90
21216;DHT22;10765;50.954;5.322;2024-01-11T07:54:07;-5.60;99.90
21216;DHT22;10765;50.954;5.322;2024-01-11T07:56:34;-5.60;99.90
21216;DHT22;10765;50.954;5.322;2024-01-11T07:59:01;-5.70;99.90
21216;DHT22;10765;50.954;5.322;2024-01-11T08:01:28;-5.50;99.90
21216;DHT22;10765;50.954;5.322;2024-01-11T08:03:55;-5.40;99.90
21216;DHT22;10765;50.954;5.322;2024-01-11T08:06:23;-5.10;99.90
21216;DHT22;10765;50.954;5.322;2024-01-11T08:08:51;-5.10;99.90
21216;DHT22;10765;50.954;5.322;2024-01-11T08:11:18;-5.10;99.90
21216;DHT22;10765;50.954;5.322;2024-01-11T08:13:45;-4.70;99.90
21216;DHT22;10765;50.954;5.322;2024-01-11T08:16:15;-4.30;99.90
21216;DHT22;10765;50.954;5.322;2024-01-11T08:18:43;-3.90;99.90
21216;DHT22;10765;50.954;5.322;2024-01-11T08:21:11;-3.60;99.90
21216;DHT22;10765;50.954;5.322;2024-01-11T08:23:41;-3.50;99.90
21216;DHT22;10765;50.954;5.322;2024-01-11T08:26:11;-3.00;99.90
21216;DHT22;10765;50.954;5.322;2024-01-11T08:28:38;-2.90;99.90
21216;DHT22;10765;50.954;5.322;2024-01-11T08:31:05;-2.50;99.90
21216;DHT22;10765;50.954;5.322;2024-01-11T08:33:32;-2.20;99.90
21216;DHT22;10765;50.954;5.322;2024-01-11T08:35:59;-0.90;99.90
21216;DHT22;10765;50.954;5.322;2024-01-11T08:38:29;0.00;91.50
21216;DHT22;10765;50.954;5.322;2024-01-11T08:40:57;0.50;45.70
21216;DHT22;10765;50.954;5.322;2024-01-11T08:43:25;1.10;21.30
21216;DHT22;10765;50.954;5.322;2024-01-11T08:45:52;1.50;1.00
21216;DHT22;10765;50.954;5.322;2024-01-11T08:48:19;1.90;1.00
21216;DHT22;10765;50.954;5.322;2024-01-11T08:50:46;2.40;1.00
21216;DHT22;10765;50.954;5.322;2024-01-11T08:53:13;2.80;1.00
21216;DHT22;10765;50.954;5.322;2024-01-11T08:55:41;2.90;1.00
21216;DHT22;10765;50.954;5.322;2024-01-11T08:58:09;3.50;1.00
21216;DHT22;10765;50.954;5.322;2024-01-11T09:00:37;3.90;1.00
21216;DHT22;10765;50.954;5.322;2024-01-11T09:03:04;4.30;1.00
21216;DHT22;10765;50.954;5.322;2024-01-11T09:05:31;4.50;1.00
21216;DHT22;10765;50.954;5.322;2024-01-11T09:07:58;5.00;1.00
21216;DHT22;10765;50.954;5.322;2024-01-11T09:10:25;6.00;1.00
21216;DHT22;10765;50.954;5.322;2024-01-11T09:12:53;6.80;1.00
21216;DHT22;10765;50.954;5.322;2024-01-11T09:15:22;6.60;1.00
21216;DHT22;10765;50.954;5.322;2024-01-11T09:17:49;6.30;1.00
21216;DHT22;10765;50.954;5.322;2024-01-11T09:20:16;6.60;1.00
21216;DHT22;10765;50.954;5.322;2024-01-11T09:22:44;7.30;1.00
21216;DHT22;10765;50.954;5.322;2024-01-11T09:25:12;7.10;1.00
21216;DHT22;10765;50.954;5.322;2024-01-11T09:27:39;7.30;1.00
21216;DHT22;10765;50.954;5.322;2024-01-11T09:30:07;7.30;1.00
21216;DHT22;10765;50.954;5.322;2024-01-11T09:32:34;8.40;1.00
21216;DHT22;10765;50.954;5.322;2024-01-11T09:35:02;8.40;1.00
21216;DHT22;10765;50.954;5.322;2024-01-11T09:37:30;7.80;1.00
21216;DHT22;10765;50.954;5.322;2024-01-11T09:39:57;7.40;1.00
21216;DHT22;10765;50.954;5.322;2024-01-11T09:42:26;8.20;1.00
21216;DHT22;10765;50.954;5.322;2024-01-11T09:44:53;8.10;1.00
21216;DHT22;10765;50.954;5.322;2024-01-11T09:47:22;9.30;1.00
21216;DHT22;10765;50.954;5.322;2024-01-11T09:49:53;9.40;1.00
21216;DHT22;10765;50.954;5.322;2024-01-11T09:52:20;10.30;1.00
21216;DHT22;10765;50.954;5.322;2024-01-11T09:54:51;10.20;1.00
21216;DHT22;10765;50.954;5.322;2024-01-11T09:57:23;8.80;1.00
21216;DHT22;10765;50.954;5.322;2024-01-11T09:59:54;7.10;1.00
21216;DHT22;10765;50.954;5.322;2024-01-11T10:02:23;4.80;1.00
21216;DHT22;10765;50.954;5.322;2024-01-11T10:04:51;3.90;1.00
21216;DHT22;10765;50.954;5.322;2024-01-11T10:07:21;3.80;1.00
21216;DHT22;10765;50.954;5.322;2024-01-11T10:09:48;3.10;1.00
21216;DHT22;10765;50.954;5.322;2024-01-11T10:12:17;2.40;1.00
21216;DHT22;10765;50.954;5.322;2024-01-11T10:14:46;1.90;1.00
21216;DHT22;10765;50.954;5.322;2024-01-11T10:17:13;1.80;1.00
21216;DHT22;10765;50.954;5.322;2024-01-11T10:19:40;1.80;1.00
21216;DHT22;10765;50.954;5.322;2024-01-11T10:22:08;2.40;1.00
21216;DHT22;10765;50.954;5.322;2024-01-11T10:24:38;2.60;1.00
21216;DHT22;10765;50.954;5.322;2024-01-11T10:27:08;3.40;1.00
21216;DHT22;10765;50.954;5.322;2024-01-11T10:29:36;3.40;1.00
21216;DHT22;10765;50.954;5.322;2024-01-11T10:32:04;3.20;1.00
21216;DHT22;10765;50.954;5.322;2024-01-11T10:34:31;2.90;1.00
21216;DHT22;10765;50.954;5.322;2024-01-11T10:36:59;3.00;1.00
21216;DHT22;10765;50.954;5.322;2024-01-11T10:39:27;3.60;1.00
21216;DHT22;10765;50.954;5.322;2024-01-11T10:42:04;4.80;1.00
21216;DHT22;10765;50.954;5.322;2024-01-11T10:44:34;6.00;1.00
21216;DHT22;10765;50.954;5.322;2024-01-11T10:47:03;6.60;1.00
21216;DHT22;10765;50.954;5.322;2024-01-11T10:49:33;6.80;1.00
21216;DHT22;10765;50.954;5.322;2024-01-11T10:52:03;6.50;1.00
21216;DHT22;10765;50.954;5.322;2024-01-11T10:54:33;7.30;1.00
21216;DHT22;10765;50.954;5.322;2024-01-11T10:57:01;7.00;1.00
21216;DHT22;10765;50.954;5.322;2024-01-11T10:59:31;6.80;1.00
21216;DHT22;10765;50.954;5.322;2024-01-11T11:02:04;6.80;1.00
21216;DHT22;10765;50.954;5.322;2024-01-11T11:04:32;6.70;1.00
21216;DHT22;10765;50.954;5.322;2024-01-11T11:07:01;6.40;1.00
21216;DHT22;10765;50.954;5.322;2024-01-11T11:09:29;6.60;1.00
21216;DHT22;10765;50.954;5.322;2024-01-11T11:11:58;6.90;1.00
21216;DHT22;10765;50.954;5.322;2024-01-11T11:14:25;6.90;1.00
21216;DHT22;10765;50.954;5.322;2024-01-11T11:16:53;7.00;1.00
21216;DHT22;10765;50.954;5.322;2024-01-11T11:19:20;8.10;1.00
21216;DHT22;10765;50.954;5.322;2024-01-11T11:21:48;9.20;1.00
21216;DHT22;10765;50.954;5.322;2024-01-11T11:24:16;9.50;1.00
21216;DHT22;10765;50.954;5.322;2024-01-11T11:26:43;9.60;1.00
21216;DHT22;10765;50.954;5.322;2024-01-11T11:29:11;9.20;1.00
21216;DHT22;10765;50.954;5.322;2024-01-11T11:31:42;8.70;1.00
21216;DHT22;10765;50.954;5.322;2024-01-11T11:34:11;7.70;1.00
21216;DHT22;10765;50.954;5.322;2024-01-11T11:36:39;6.50;1.00
21216;DHT22;10765;50.954;5.322;2024-01-11T11:39:09;6.10;1.00
21216;DHT22;10765;50.954;5.322;2024-01-11T11:41:38;6.10;1.00
21216;DHT22;10765;50.954;5.322;2024-01-11T11:44:05;6.70;1.00
21216;DHT22;10765;50.954;5.322;2024-01-11T11:46:35;5.50;1.00
21216;DHT22;10765;50.954;5.322;2024-01-11T11:49:02;4.60;1.00
21216;DHT22;10765;50.954;5.322;2024-01-11T11:51:29;5.00;1.00
21216;DHT22;10765;50.954;5.322;2024-01-11T11:53:57;5.60;1.00
21216;DHT22;10765;50.954;5.322;2024-01-11T11:56:24;5.70;1.00
21216;DHT22;10765;50.954;5.322;2024-01-11T11:58:52;7.10;1.00
21216;DHT22;10765;50.954;5.322;2024-01-11T12:01:20;7.80;1.00
21216;DHT22;10765;50.954;5.322;2024-01-11T12:03:49;6.90;1.00
21216;DHT22;10765;50.954;5.322;2024-01-11T12:06:16;6.60;1.00
21216;DHT22;10765;50.954;5.322;2024-01-11T12:08:44;5.60;1.00
21216;DHT22;10765;50.954;5.322;2024-01-11T12:11:15;6.40;1.00
21216;DHT22;10765;50.954;5.322;2024-01-11T12:13:42;7.00;1.00
21216;DHT22;10765;50.954;5.322;2024-01-11T12:16:10;6.10;1.00
21216;DHT22;10765;50.954;5.322;2024-01-11T12:18:37;5.30;1.00
21216;DHT22;10765;50.954;5.322;2024-01-11T12:21:05;6.30;1.00
21216;DHT22;10765;50.954;5.322;2024-01-11T12:23:33;6.70;1.00
21216;DHT22;10765;50.954;5.322;2024-01-11T12:26:01;6.00;1.00
21216;DHT22;10765;50.954;5.322;2024-01-11T12:28:31;5.90;1.00
21216;DHT22;10765;50.954;5.322;2024-01-11T12:30:58;5.90;1.00
21216;DHT22;10765;50.954;5.322;2024-01-11T12:33:26;5.90;1.00
21216;DHT22;10765;50.954;5.322;2024-01-11T12:35:53;6.00;1.00
21216;DHT22;10765;50.954;5.322;2024-01-11T12:38:22;7.30;1.00
21216;DHT22;10765;50.954;5.322;2024-01-11T12:40:49;6.60;1.00
21216;DHT22;10765;50.954;5.322;2024-01-11T12:43:16;5.20;1.00
21216;DHT22;10765;50.954;5.322;2024-01-11T12:45:43;4.70;1.00
21216;DHT22;10765;50.954;5.322;2024-01-11T12:48:10;4.80;1.00
21216;DHT22;10765;50.954;5.322;2024-01-11T12:50:40;4.70;1.00
21216;DHT22;10765;50.954;5.322;2024-01-11T12:53:08;4.50;1.00
21216;DHT22;10765;50.954;5.322;2024-01-11T12:55:39;5.00;1.00
21216;DHT22;10765;50.954;5.322;2024-01-11T12:58:07;5.10;1.00
21216;DHT22;10765;50.954;5.322;2024-01-11T13:00:35;4.60;1.00
21216;DHT22;10765;50.954;5.322;2024-01-11T13:03:04;4.60;1.00
21216;DHT22;10765;50.954;5.322;2024-01-11T13:05:31;4.50;1.00
21216;DHT22;10765;50.954;5.322;2024-01-11T13:08:01;4.70;1.00
21216;DHT22;10765;50.954;5.322;2024-01-11T13:10:29;4.60;1.00
21216;DHT22;10765;50.954;5.322;2024-01-11T13:12:59;3.50;1.00
21216;DHT22;10765;50.954;5.322;2024-01-11T13:15:27;2.90;1.00
21216;DHT22;10765;50.954;5.322;2024-01-11T13:17:55;3.30;1.00
21216;DHT22;10765;50.954;5.322;2024-01-11T13:20:22;3.50;1.00
21216;DHT22;10765;50.954;5.322;2024-01-11T13:22:53;3.90;1.00
21216;DHT22;10765;50.954;5.322;2024-01-11T13:25:20;3.80;1.00
21216;DHT22;10765;50.954;5.322;2024-01-11T13:27:47;3.70;1.00
21216;DHT22;10765;50.954;5.322;2024-01-11T13:30:16;4.50;1.00
21216;DHT22;10765;50.954;5.322;2024-01-11T13:32:42;5.80;1.00
21216;DHT22;10765;50.954;5.322;2024-01-11T13:35:09;6.20;1.00
21216;DHT22;10765;50.954;5.322;2024-01-11T13:37:36;5.70;1.00
21216;DHT22;10765;50.954;5.322;2024-01-11T13:40:04;5.20;1.00
21216;DHT22;10765;50.954;5.322;2024-01-11T13:42:31;5.60;1.00
21216;DHT22;10765;50.954;5.322;2024-01-11T13:44:57;6.00;1.00
21216;DHT22;10765;50.954;5.322;2024-01-11T13:47:27;7.30;1.00
21216;DHT22;10765;50.954;5.322;2024-01-11T13:49:54;7.10;1.00
21216;DHT22;10765;50.954;5.322;2024-01-11T13:52:20;6.90;1.00
21216;DHT22;10765;50.954;5.322;2024-01-11T13:54:47;7.60;1.00
21216;DHT22;10765;50.954;5.322;2024-01-11T13:57:14;7.70;1.00
21216;DHT22;10765;50.954;5.322;2024-01-11T13:59:42;8.00;1.00
21216;DHT22;10765;50.954;5.322;2024-01-11T14:02:09;8.60;1.00
21216;DHT22;10765;50.954;5.322;2024-01-11T14:04:37;9.30;1.00
21216;DHT22;10765;50.954;5.322;2024-01-11T14:07:04;10.10;1.00
21216;DHT22;10765;50.954;5.322;2024-01-11T14:09:31;9.40;1.00
21216;DHT22;10765;50.954;5.322;2024-01-11T14:11:58;8.20;1.00
21216;DHT22;10765;50.954;5.322;2024-01-11T14:14:26;8.30;1.00
21216;DHT22;10765;50.954;5.322;2024-01-11T14:16:52;8.40;1.00
21216;DHT22;10765;50.954;5.322;2024-01-11T14:19:19;8.80;1.00
21216;DHT22;10765;50.954;5.322;2024-01-11T14:21:48;8.80;1.00
21216;DHT22;10765;50.954;5.322;2024-01-11T14:24:16;8.60;1.00
21216;DHT22;10765;50.954;5.322;2024-01-11T14:26:43;7.40;1.00
21216;DHT22;10765;50.954;5.322;2024-01-11T14:29:10;6.30;1.00
21216;DHT22;10765;50.954;5.322;2024-01-11T14:31:38;5.20;1.00
21216;DHT22;10765;50.954;5.322;2024-01-11T14:34:04;4.50;1.00
21216;DHT22;10765;50.954;5.322;2024-01-11T14:36:31;5.70;1.00
21216;DHT22;10765;50.954;5.322;2024-01-11T14:38:59;7.60;1.00
21216;DHT22;10765;50.954;5.322;2024-01-11T14:41:29;7.40;1.00
21216;DHT22;10765;50.954;5.322;2024-01-11T14:43:57;5.70;1.00
21216;DHT22;10765;50.954;5.322;2024-01-11T14:46:25;6.30;1.00
21216;DHT22;10765;50.954;5.322;2024-01-11T14:48:52;5.60;1.00
21216;DHT22;10765;50.954;5.322;2024-01-11T14:51:19;4.90;1.00
21216;DHT22;10765;50.954;5.322;2024-01-11T14:53:46;4.30;1.00
21216;DHT22;10765;50.954;5.322;2024-01-11T14:56:14;3.90;1.00
21216;DHT22;10765;50.954;5.322;2024-01-11T14:58:41;3.20;1.00
21216;DHT22;10765;50.954;5.322;2024-01-11T15:01:08;3.60;1.00
21216;DHT22;10765;50.954;5.322;2024-01-11T15:03:35;4.40;1.00
21216;DHT22;10765;50.954;5.322;2024-01-11T15:06:02;5.30;1.00
21216;DHT22;10765;50.954;5.322;2024-01-11T15:08:30;4.90;1.00
21216;DHT22;10765;50.954;5.322;2024-01-11T15:10:57;5.30;1.00
21216;DHT22;10765;50.954;5.322;2024-01-11T15:13:25;5.50;1.00
21216;DHT22;10765;50.954;5.322;2024-01-11T15:15:54;4.90;1.00
21216;DHT22;10765;50.954;5.322;2024-01-11T15:18:21;3.10;1.00
21216;DHT22;10765;50.954;5.322;2024-01-11T15:20:48;2.00;1.00
21216;DHT22;10765;50.954;5.322;2024-01-11T15:23:16;1.40;1.00
21216;DHT22;10765;50.954;5.322;2024-01-11T15:25:42;1.00;1.00
21216;DHT22;10765;50.954;5.322;2024-01-11T15:28:10;0.90;1.00
21216;DHT22;10765;50.954;5.322;2024-01-11T15:30:38;0.90;1.00
21216;DHT22;10765;50.954;5.322;2024-01-11T15:33:05;0.70;1.00
21216;DHT22;10765;50.954;5.322;2024-01-11T15:35:32;0.60;1.00
21216;DHT22;10765;50.954;5.322;2024-01-11T15:37:59;0.50;1.00
21216;DHT22;10765;50.954;5.322;2024-01-11T15:40:26;0.40;1.00
21216;DHT22;10765;50.954;5.322;2024-01-11T15:42:53;0.20;1.00
21216;DHT22;10765;50.954;5.322;2024-01-11T15:45:20;0.10;1.00
21216;DHT22;10765;50.954;5.322;2024-01-11T15:47:48;0.10;1.00
21216;DHT22;10765;50.954;5.322;2024-01-11T15:50:15;-0.10;1.00